createdAt,value
2018-04-30T00:01:13.665Z,15.41
2018-04-30T00:03:44.460Z,15.54
2018-04-30T00:06:15.240Z,15.72
2018-04-30T00:08:46.031Z,15.69
2018-04-30T00:11:16.805Z,15.72
2018-04-30T00:13:47.619Z,15.63
2018-04-30T00:16:18.383Z,15.58
2018-04-30T00:18:49.200Z,15.58
2018-04-30T00:21:19.960Z,15.55
2018-04-30T00:23:50.740Z,15.57
2018-04-30T00:26:21.531Z,15.52
2018-04-30T00:28:52.320Z,15.34
2018-04-30T00:31:23.090Z,15.39
2018-04-30T00:33:53.881Z,15.23
2018-04-30T00:36:24.659Z,15.22
2018-04-30T00:38:55.452Z,15.16
2018-04-30T00:41:26.229Z,15.09
2018-04-30T00:43:57.056Z,15.06
2018-04-30T00:46:27.815Z,15.01
2018-04-30T00:48:58.607Z,14.96
2018-04-30T00:51:29.364Z,15.11
2018-04-30T00:54:00.167Z,15.09
2018-04-30T00:56:30.956Z,15.11
2018-04-30T00:59:01.753Z,15.09
2018-04-30T01:01:33.319Z,15.02
2018-04-30T01:04:04.097Z,14.94
2018-04-30T01:06:34.859Z,14.80
2018-04-30T01:09:05.648Z,14.74
2018-04-30T01:11:36.442Z,14.71
2018-04-30T01:14:07.264Z,14.65
2018-04-30T01:16:40.030Z,14.58
2018-04-30T01:19:10.824Z,14.62
2018-04-30T01:21:41.589Z,14.92
2018-04-30T01:24:12.382Z,14.83
2018-04-30T01:26:43.155Z,14.87
2018-04-30T01:29:13.959Z,14.81
2018-04-30T01:31:44.715Z,14.82
2018-04-30T01:34:15.515Z,14.66
2018-04-30T01:36:46.275Z,14.53
2018-04-30T01:39:17.087Z,14.46
2018-04-30T01:41:47.875Z,14.46
2018-04-30T01:44:18.681Z,14.31
2018-04-30T01:46:49.476Z,14.41
2018-04-30T01:49:20.256Z,14.40
2018-04-30T01:51:51.027Z,14.41
2018-04-30T01:54:21.847Z,14.40
2018-04-30T01:56:52.652Z,14.33
2018-04-30T01:59:23.451Z,14.32
2018-04-30T02:01:54.239Z,14.24
2018-04-30T02:04:25.028Z,14.08
2018-04-30T02:06:55.797Z,13.99
2018-04-30T02:09:26.583Z,14.02
2018-04-30T02:11:57.364Z,14.02
2018-04-30T02:14:28.155Z,13.85
2018-04-30T02:16:58.924Z,13.82
2018-04-30T02:19:29.703Z,13.64
2018-04-30T02:22:00.463Z,13.61
2018-04-30T02:24:31.250Z,13.61
2018-04-30T02:27:02.025Z,13.53
2018-04-30T02:29:32.850Z,13.39
2018-04-30T02:32:03.645Z,13.36
2018-04-30T02:34:34.477Z,13.29
2018-04-30T02:37:05.243Z,13.19
2018-04-30T02:39:36.043Z,13.19
2018-04-30T02:42:06.828Z,13.25
2018-04-30T02:44:37.627Z,13.34
2018-04-30T02:47:08.403Z,13.35
2018-04-30T02:49:39.791Z,13.37
2018-04-30T02:52:10.594Z,13.32
2018-04-30T02:54:41.374Z,13.29
2018-04-30T02:57:12.143Z,13.22
2018-04-30T02:59:42.960Z,13.22
2018-04-30T03:02:13.748Z,13.41
2018-04-30T03:04:44.539Z,13.56
2018-04-30T03:07:15.296Z,13.59
2018-04-30T03:09:46.095Z,13.55
2018-04-30T03:12:17.541Z,13.61
2018-04-30T03:14:48.363Z,13.61
2018-04-30T03:17:19.145Z,13.74
2018-04-30T03:19:49.944Z,13.78
2018-04-30T03:22:20.716Z,13.81
2018-04-30T03:24:51.516Z,13.76
2018-04-30T03:27:22.344Z,13.61
2018-04-30T03:29:53.112Z,13.57
2018-04-30T03:32:23.928Z,13.50
2018-04-30T03:34:54.720Z,13.43
2018-04-30T03:37:25.497Z,13.55
2018-04-30T03:39:56.263Z,13.66
2018-04-30T03:42:27.051Z,13.79
2018-04-30T03:44:57.871Z,14.06
2018-04-30T03:47:28.635Z,14.17
2018-04-30T03:49:59.415Z,14.16
2018-04-30T03:52:30.199Z,14.07
2018-04-30T03:55:01.016Z,14.05
2018-04-30T03:57:31.784Z,14.09
2018-04-30T04:00:02.584Z,14.02
2018-04-30T04:02:45.788Z,14.02
2018-04-30T04:05:28.958Z,14.28
2018-04-30T04:07:59.752Z,14.44
2018-04-30T04:10:30.536Z,14.73
2018-04-30T04:13:01.317Z,14.80
2018-04-30T04:15:32.101Z,14.88
2018-04-30T04:18:02.875Z,14.94
2018-04-30T04:20:33.657Z,14.96
2018-04-30T04:23:04.435Z,15.07
2018-04-30T04:25:36.164Z,15.21
2018-04-30T04:28:06.935Z,15.33
2018-04-30T04:30:37.731Z,15.43
2018-04-30T04:33:08.591Z,15.55
2018-04-30T04:35:39.371Z,15.58
2018-04-30T04:38:10.143Z,15.57
2018-04-30T04:40:40.924Z,15.55
2018-04-30T04:43:11.718Z,15.51
2018-04-30T04:45:42.510Z,15.54
2018-04-30T04:48:13.267Z,15.58
2018-04-30T04:50:44.059Z,15.56
2018-04-30T04:53:14.824Z,15.60
2018-04-30T04:55:45.588Z,15.57
2018-04-30T04:58:16.395Z,15.54
2018-04-30T05:00:47.187Z,15.50
2018-04-30T05:03:17.970Z,15.54
2018-04-30T05:05:48.771Z,15.51
2018-04-30T05:08:19.531Z,15.53
2018-04-30T05:10:50.345Z,15.53
2018-04-30T05:13:21.647Z,15.49
2018-04-30T05:15:52.487Z,15.53
2018-04-30T05:18:23.309Z,15.47
2018-04-30T05:20:54.199Z,15.49
2018-04-30T05:23:24.952Z,15.49
2018-04-30T05:25:55.759Z,15.51
2018-04-30T05:28:27.041Z,15.56
2018-04-30T05:30:57.820Z,15.61
2018-04-30T05:33:29.610Z,15.63
2018-04-30T05:36:00.416Z,15.65
2018-04-30T05:38:31.187Z,15.67
2018-04-30T05:41:01.980Z,15.66
2018-04-30T05:43:32.871Z,15.80
2018-04-30T05:46:03.708Z,16.02
2018-04-30T05:48:34.481Z,16.07
2018-04-30T05:51:05.283Z,16.12
2018-04-30T05:53:36.063Z,16.04
2018-04-30T05:56:06.877Z,15.98
2018-04-30T05:58:37.703Z,15.83
2018-04-30T06:01:08.536Z,15.75
2018-04-30T06:03:39.318Z,15.67
2018-04-30T06:06:10.151Z,15.79
2018-04-30T06:08:40.936Z,15.79
2018-04-30T06:11:11.719Z,15.75
2018-04-30T06:13:42.487Z,15.65
2018-04-30T06:16:13.287Z,15.60
2018-04-30T06:18:44.044Z,15.48
2018-04-30T06:21:14.862Z,15.45
2018-04-30T06:23:45.641Z,15.26
2018-04-30T06:26:16.433Z,15.28
2018-04-30T06:28:47.228Z,15.21
2018-04-30T06:31:18.025Z,15.14
2018-04-30T06:33:48.805Z,15.32
2018-04-30T06:36:19.599Z,15.37
2018-04-30T06:38:50.392Z,15.22
2018-04-30T06:41:21.174Z,15.27
2018-04-30T06:43:52.805Z,15.39
2018-04-30T06:46:23.655Z,15.45
2018-04-30T06:48:54.456Z,15.47
2018-04-30T06:51:25.259Z,15.63
2018-04-30T06:53:56.035Z,15.76
2018-04-30T06:56:26.841Z,15.64
2018-04-30T06:58:57.656Z,15.74
2018-04-30T07:01:28.452Z,15.41
2018-04-30T07:03:59.299Z,15.54
2018-04-30T07:06:30.112Z,15.48
2018-04-30T07:09:00.899Z,15.67
2018-04-30T07:11:31.688Z,15.61
2018-04-30T07:14:03.183Z,15.65
2018-04-30T07:16:33.975Z,15.75
2018-04-30T07:19:04.750Z,15.76
2018-04-30T07:21:35.555Z,15.60
2018-04-30T07:24:06.360Z,15.93
2018-04-30T07:26:37.231Z,16.15
2018-04-30T07:29:08.022Z,16.70
2018-04-30T07:31:38.868Z,16.57
2018-04-30T07:34:09.804Z,16.68
2018-04-30T07:36:40.595Z,16.20
2018-04-30T07:39:11.379Z,16.03
2018-04-30T07:41:42.164Z,15.98
2018-04-30T07:44:12.979Z,16.21
2018-04-30T07:46:43.804Z,16.34
2018-04-30T07:49:14.587Z,16.25
2018-04-30T07:51:45.358Z,16.35
2018-04-30T07:54:16.148Z,16.15
2018-04-30T07:56:50.473Z,16.13
2018-04-30T07:59:21.246Z,16.27
2018-04-30T08:01:52.015Z,16.22
2018-04-30T08:04:22.775Z,16.50
2018-04-30T08:06:53.592Z,15.94
2018-04-30T08:09:24.355Z,15.88
2018-04-30T08:11:55.141Z,16.14
2018-04-30T08:14:25.916Z,15.94
2018-04-30T08:16:56.735Z,16.26
2018-04-30T08:19:27.492Z,16.01
2018-04-30T08:21:58.295Z,16.30
2018-04-30T08:24:29.055Z,16.05
2018-04-30T08:26:59.823Z,15.96
2018-04-30T08:29:30.613Z,15.14
2018-04-30T08:32:01.446Z,15.00
2018-04-30T08:34:32.213Z,14.65
2018-04-30T08:37:03.027Z,14.17
2018-04-30T08:39:33.796Z,13.53
2018-04-30T08:42:04.587Z,13.46
2018-04-30T08:44:35.369Z,13.80
2018-04-30T08:47:06.154Z,14.13
2018-04-30T08:49:36.912Z,14.51
2018-04-30T08:52:07.696Z,14.66
2018-04-30T08:54:38.466Z,15.00
2018-04-30T08:57:09.259Z,14.94
2018-04-30T08:59:40.024Z,15.07
2018-04-30T09:02:10.836Z,14.84
2018-04-30T09:04:41.599Z,15.10
2018-04-30T09:07:12.411Z,15.07
2018-04-30T09:09:43.248Z,14.66
2018-04-30T09:12:14.046Z,14.60
2018-04-30T09:14:44.818Z,14.63
2018-04-30T09:17:15.612Z,14.60
2018-04-30T09:19:46.355Z,14.36
2018-04-30T09:22:17.140Z,14.57
2018-04-30T09:24:47.895Z,14.83
2018-04-30T09:27:18.682Z,15.03
2018-04-30T09:29:49.456Z,15.33
2018-04-30T09:32:20.245Z,15.46
2018-04-30T09:34:51.006Z,15.93
2018-04-30T09:37:21.802Z,16.48
2018-04-30T09:39:52.573Z,17.11
2018-04-30T09:42:23.382Z,17.47
2018-04-30T09:44:54.154Z,18.01
2018-04-30T09:47:24.942Z,19.23
2018-04-30T09:49:55.705Z,19.35
2018-04-30T09:52:26.500Z,19.52
2018-04-30T09:54:57.271Z,20.31
2018-04-30T09:57:28.051Z,20.18
2018-04-30T09:59:58.811Z,20.23
2018-04-30T10:02:29.617Z,19.49
2018-04-30T10:05:00.395Z,19.64
2018-04-30T10:07:31.179Z,18.25
2018-04-30T10:10:02.639Z,18.33
2018-04-30T10:12:33.437Z,18.86
2018-04-30T10:15:04.232Z,19.14
2018-04-30T10:17:35.075Z,18.93
2018-04-30T10:20:05.854Z,19.22
2018-04-30T10:22:36.683Z,19.18
2018-04-30T10:25:07.454Z,19.36
2018-04-30T10:27:38.259Z,19.62
2018-04-30T10:30:09.019Z,20.00
2018-04-30T10:32:39.797Z,20.38
2018-04-30T10:35:10.575Z,19.64
2018-04-30T10:37:41.442Z,19.42
2018-04-30T10:40:12.155Z,19.75
2018-04-30T10:42:42.967Z,20.11
2018-04-30T10:45:13.723Z,19.84
2018-04-30T10:47:44.539Z,20.10
2018-04-30T10:52:52.975Z,20.84
2018-04-30T10:55:23.784Z,21.31
2018-04-30T10:57:54.579Z,21.06
2018-04-30T11:00:25.338Z,20.46
2018-04-30T11:02:56.144Z,21.26
2018-04-30T11:05:26.902Z,21.17
2018-04-30T11:07:57.690Z,21.30
2018-04-30T11:10:28.499Z,21.86
2018-04-30T11:12:59.308Z,22.16
2018-04-30T11:15:30.127Z,22.54
2018-04-30T11:18:00.964Z,21.42
2018-04-30T11:20:31.748Z,21.63
2018-04-30T11:23:02.564Z,22.74
2018-04-30T11:25:33.332Z,22.60
2018-04-30T11:28:04.195Z,22.66
2018-04-30T11:30:34.972Z,21.75
2018-04-30T11:33:05.755Z,22.81
2018-04-30T11:35:36.592Z,23.28
2018-04-30T11:38:07.469Z,22.62
2018-04-30T11:40:38.255Z,22.41
2018-04-30T11:43:09.071Z,23.10
2018-04-30T11:45:39.856Z,22.52
2018-04-30T11:48:10.755Z,23.05
2018-04-30T11:50:41.532Z,23.25
2018-04-30T11:53:12.372Z,23.16
2018-04-30T11:55:43.175Z,24.09
2018-04-30T11:58:14.039Z,24.46
2018-04-30T12:00:44.857Z,24.26
2018-04-30T12:03:15.662Z,23.85
2018-04-30T12:05:46.431Z,24.03
2018-04-30T12:08:17.248Z,24.81
2018-04-30T12:10:48.053Z,24.46
2018-04-30T12:13:18.849Z,24.59
2018-04-30T12:15:49.635Z,25.17
2018-04-30T12:18:20.471Z,25.28
2018-04-30T12:20:51.269Z,26.24
2018-04-30T12:23:22.073Z,25.86
2018-04-30T12:25:52.858Z,25.20
2018-04-30T12:28:23.657Z,25.50
2018-04-30T12:30:54.448Z,26.53
2018-04-30T12:33:25.342Z,27.30
2018-04-30T12:35:56.144Z,27.48
2018-04-30T12:38:26.964Z,28.38
2018-04-30T12:40:57.762Z,27.41
2018-04-30T12:43:28.566Z,26.86
2018-04-30T12:45:59.343Z,26.66
2018-04-30T12:48:30.135Z,27.49
2018-04-30T12:51:00.903Z,26.97
2018-04-30T12:53:31.776Z,28.40
2018-04-30T12:56:02.626Z,28.20
2018-04-30T12:58:33.376Z,28.04
2018-04-30T13:01:04.156Z,27.75
2018-04-30T13:03:34.955Z,28.05
2018-04-30T13:06:05.739Z,28.56
2018-04-30T13:08:36.520Z,28.97
2018-04-30T13:11:08.339Z,28.88
2018-04-30T13:13:39.147Z,28.70
2018-04-30T13:16:09.949Z,27.73
2018-04-30T13:18:40.751Z,28.07
2018-04-30T13:21:11.526Z,27.56
2018-04-30T13:23:42.336Z,27.23
2018-04-30T13:26:13.120Z,28.30
2018-04-30T13:28:43.939Z,29.31
2018-04-30T13:31:15.152Z,28.53
2018-04-30T13:33:45.999Z,27.88
2018-04-30T13:36:18.749Z,27.09
2018-04-30T13:38:49.565Z,27.92
2018-04-30T13:41:20.352Z,28.39
2018-04-30T13:43:51.190Z,30.40
2018-04-30T13:46:21.959Z,29.06
2018-04-30T13:48:52.770Z,28.91
2018-04-30T13:51:23.532Z,28.67
2018-04-30T13:53:54.330Z,27.47
2018-04-30T13:56:25.120Z,28.25
2018-04-30T13:58:55.931Z,29.20
2018-04-30T14:01:26.692Z,28.64
2018-04-30T14:03:57.514Z,27.97
2018-04-30T14:06:28.320Z,27.62
2018-04-30T14:08:59.123Z,27.32
2018-04-30T14:11:29.944Z,28.01
2018-04-30T14:14:00.729Z,27.57
2018-04-30T14:16:31.511Z,28.45
2018-04-30T14:19:02.314Z,28.79
2018-04-30T14:21:33.197Z,28.88
2018-04-30T14:24:03.972Z,28.82
2018-04-30T14:26:34.738Z,27.42
2018-04-30T14:29:05.550Z,27.85
2018-04-30T14:31:36.426Z,28.12
2018-04-30T14:34:07.176Z,27.28
2018-04-30T14:36:38.086Z,26.42
2018-04-30T14:39:08.892Z,28.01
2018-04-30T14:41:39.679Z,29.54
2018-04-30T14:44:10.479Z,27.39
2018-04-30T14:46:41.255Z,26.24
2018-04-30T14:49:12.036Z,27.14
2018-04-30T14:51:43.557Z,26.71
2018-04-30T14:54:14.365Z,25.62
2018-04-30T14:56:45.230Z,24.72
2018-04-30T14:59:15.968Z,24.40
2018-04-30T15:01:46.753Z,26.70
2018-04-30T15:04:17.536Z,27.75
2018-04-30T15:06:48.309Z,25.63
2018-04-30T15:09:19.101Z,26.63
2018-04-30T15:11:49.883Z,26.01
2018-04-30T15:14:20.680Z,26.53
2018-04-30T15:16:51.453Z,27.09
2018-04-30T15:19:22.247Z,27.25
2018-04-30T15:21:53.062Z,28.30
2018-04-30T15:24:23.867Z,28.68
2018-04-30T15:26:54.632Z,28.84
2018-04-30T15:29:25.542Z,28.46
2018-04-30T15:31:56.316Z,25.46
2018-04-30T15:34:27.127Z,26.86
2018-04-30T15:36:57.890Z,27.92
2018-04-30T15:39:28.668Z,26.93
2018-04-30T15:41:59.574Z,27.30
2018-04-30T15:44:30.283Z,27.91
2018-04-30T15:47:01.096Z,27.49
2018-04-30T15:49:31.953Z,27.78
2018-04-30T15:52:02.743Z,27.35
2018-04-30T15:54:33.575Z,27.09
2018-04-30T15:57:04.331Z,26.97
2018-04-30T15:59:35.135Z,27.48
2018-04-30T16:02:05.924Z,26.49
2018-04-30T16:04:36.777Z,27.90
2018-04-30T16:07:08.272Z,27.57
2018-04-30T16:09:39.088Z,27.00
2018-04-30T16:12:09.861Z,26.84
2018-04-30T16:14:41.683Z,25.95
2018-04-30T16:17:12.471Z,25.47
2018-04-30T16:19:43.329Z,25.25
2018-04-30T16:22:14.093Z,25.04
2018-04-30T16:24:44.919Z,24.63
2018-04-30T16:27:15.714Z,24.23
2018-04-30T16:29:46.533Z,23.08
2018-04-30T16:32:17.344Z,22.15
2018-04-30T16:34:48.143Z,21.96
2018-04-30T16:37:18.931Z,21.98
2018-04-30T16:39:50.299Z,21.54
2018-04-30T16:42:21.143Z,21.04
2018-04-30T16:44:51.983Z,20.62
2018-04-30T16:47:22.781Z,20.36
2018-04-30T16:49:53.591Z,20.14
2018-04-30T16:52:24.383Z,19.88
2018-04-30T16:54:55.151Z,19.79
2018-04-30T16:57:25.912Z,19.83
2018-04-30T16:59:56.731Z,19.85
2018-04-30T17:02:27.531Z,19.54
2018-04-30T17:04:58.332Z,19.43
2018-04-30T17:07:29.091Z,19.41
2018-04-30T17:10:01.352Z,19.42
2018-04-30T17:12:32.139Z,19.37
2018-04-30T17:15:02.939Z,19.25
2018-04-30T17:17:33.700Z,19.23
2018-04-30T17:20:04.479Z,19.25
2018-04-30T17:22:35.239Z,19.15
2018-04-30T17:25:06.041Z,18.98
2018-04-30T17:27:36.807Z,18.80
2018-04-30T17:30:07.596Z,18.80
2018-04-30T17:32:38.357Z,18.79
2018-04-30T17:35:09.161Z,18.67
2018-04-30T17:37:39.911Z,18.48
2018-04-30T17:40:10.710Z,18.31
2018-04-30T17:42:41.488Z,18.26
2018-04-30T17:45:12.281Z,18.21
2018-04-30T17:47:43.050Z,18.22
2018-04-30T17:50:13.832Z,18.21
2018-04-30T17:52:44.587Z,18.20
2018-04-30T17:55:22.359Z,18.22
2018-04-30T17:57:53.140Z,18.21
2018-04-30T18:00:23.935Z,18.22
2018-04-30T18:02:54.730Z,18.20
2018-04-30T18:05:25.543Z,18.19
2018-04-30T18:07:56.315Z,18.19
2018-04-30T18:10:27.115Z,18.12
2018-04-30T18:12:57.915Z,17.98
2018-04-30T18:15:28.711Z,17.91
2018-04-30T18:17:59.504Z,17.73
2018-04-30T18:20:30.312Z,17.66
2018-04-30T18:23:01.075Z,17.50
2018-04-30T18:25:31.912Z,17.37
2018-04-30T18:28:02.688Z,17.29
2018-04-30T18:30:33.503Z,17.20
2018-04-30T18:33:04.295Z,17.13
2018-04-30T18:35:35.099Z,16.99
2018-04-30T18:38:05.884Z,16.84
2018-04-30T18:40:36.657Z,16.72
2018-04-30T18:43:07.440Z,16.65
2018-04-30T18:45:38.215Z,16.64
2018-04-30T18:50:53.015Z,16.53
2018-04-30T18:53:23.851Z,16.41
2018-04-30T18:55:54.637Z,16.42
2018-04-30T18:58:25.407Z,16.41
2018-04-30T19:00:56.185Z,16.29
2018-04-30T19:03:26.951Z,16.15
2018-04-30T19:05:57.727Z,15.91
2018-04-30T19:08:28.565Z,15.73
2018-04-30T19:10:59.399Z,15.65
2018-04-30T19:13:30.187Z,15.61
2018-04-30T19:16:01.003Z,15.57
2018-04-30T19:18:31.777Z,15.76
2018-04-30T19:21:02.584Z,15.96
2018-04-30T19:23:33.344Z,16.21
2018-04-30T19:26:04.141Z,16.34
2018-04-30T19:28:34.937Z,16.41
2018-04-30T19:31:05.735Z,16.46
2018-04-30T19:33:36.513Z,16.48
2018-04-30T19:36:07.317Z,16.45
2018-04-30T19:38:38.099Z,16.46
2018-04-30T19:41:08.914Z,16.43
2018-04-30T19:43:39.700Z,16.43
2018-04-30T19:46:10.503Z,16.41
2018-04-30T19:48:41.281Z,16.44
2018-04-30T19:51:12.076Z,16.43
2018-04-30T19:53:44.364Z,16.46
2018-04-30T19:56:15.199Z,16.47
2018-04-30T19:58:45.988Z,16.10
2018-04-30T20:01:16.837Z,15.49
2018-04-30T20:03:47.627Z,15.00
2018-04-30T20:06:18.408Z,14.67
2018-04-30T20:08:50.283Z,14.40
2018-04-30T20:11:21.012Z,14.19
2018-04-30T20:13:51.842Z,14.00
2018-04-30T20:16:22.628Z,13.79
2018-04-30T20:18:53.423Z,13.56
2018-04-30T20:21:24.224Z,13.39
2018-04-30T20:23:55.069Z,13.30
2018-04-30T20:26:25.921Z,13.31
2018-04-30T20:28:56.710Z,13.34
2018-04-30T20:31:27.523Z,13.44
2018-04-30T20:33:58.388Z,13.53
2018-04-30T20:36:29.232Z,13.63
2018-04-30T20:39:00.089Z,13.68
2018-04-30T20:41:30.867Z,13.76
2018-04-30T20:44:01.663Z,13.75
2018-04-30T20:46:32.463Z,13.71
2018-04-30T20:49:03.227Z,13.69
2018-04-30T20:51:34.065Z,13.74
2018-04-30T20:54:04.833Z,13.80
2018-04-30T20:56:35.648Z,13.76
2018-04-30T20:59:07.380Z,13.78
2018-04-30T21:01:38.200Z,13.86
2018-04-30T21:04:08.974Z,13.76
2018-04-30T21:06:39.759Z,13.77
2018-04-30T21:09:11.487Z,13.80
2018-04-30T21:11:42.305Z,13.91
2018-04-30T21:14:13.080Z,13.88
2018-04-30T21:16:43.908Z,13.88
2018-04-30T21:19:14.663Z,13.85
2018-04-30T21:21:45.439Z,13.81
2018-04-30T21:24:16.698Z,13.81
2018-04-30T21:26:47.472Z,13.98
2018-04-30T21:29:18.267Z,13.97
2018-04-30T21:31:49.079Z,14.07
2018-04-30T21:34:19.839Z,14.04
2018-04-30T21:36:50.660Z,14.05
2018-04-30T21:39:21.419Z,14.07
2018-04-30T21:41:52.229Z,14.05
2018-04-30T21:44:23.015Z,14.08
2018-04-30T21:46:53.816Z,14.09
2018-04-30T21:49:24.633Z,14.16
2018-04-30T21:51:55.427Z,14.15
2018-04-30T21:54:26.204Z,14.15
2018-04-30T21:56:56.983Z,14.20
2018-04-30T21:59:27.772Z,14.20
2018-04-30T22:01:58.603Z,14.17
2018-04-30T22:04:29.359Z,14.18
2018-04-30T22:07:00.156Z,14.17
2018-04-30T22:09:30.937Z,14.16
2018-04-30T22:12:02.426Z,14.22
2018-04-30T22:14:33.204Z,14.20
2018-04-30T22:17:03.988Z,14.24
2018-04-30T22:19:35.009Z,14.23
2018-04-30T22:22:05.840Z,14.24
2018-04-30T22:24:36.626Z,14.24
2018-04-30T22:27:07.400Z,14.34
2018-04-30T22:29:38.190Z,14.26
2018-04-30T22:32:08.977Z,14.25
2018-04-30T22:34:39.728Z,14.23
2018-04-30T22:37:10.520Z,14.19
2018-04-30T22:39:41.309Z,14.24
2018-04-30T22:42:12.170Z,14.22
2018-04-30T22:44:42.971Z,14.24
2018-04-30T22:47:13.753Z,14.19
2018-04-30T22:49:44.558Z,14.16
2018-04-30T22:52:15.408Z,14.14
2018-04-30T22:54:46.225Z,14.16
2018-04-30T22:57:17.018Z,14.11
2018-04-30T22:59:47.850Z,13.98
2018-04-30T23:02:18.665Z,13.68
2018-04-30T23:04:49.435Z,13.31
2018-04-30T23:07:20.259Z,13.01
2018-04-30T23:09:51.064Z,12.78
2018-04-30T23:12:21.875Z,12.52
2018-04-30T23:14:52.659Z,12.32
2018-04-30T23:17:23.486Z,12.32
2018-04-30T23:19:54.335Z,12.15
2018-04-30T23:22:25.163Z,12.07
2018-04-30T23:24:55.999Z,12.11
2018-04-30T23:27:26.811Z,11.99
2018-04-30T23:29:57.643Z,12.02
2018-04-30T23:32:28.434Z,12.00
2018-04-30T23:34:59.243Z,11.92
2018-04-30T23:37:30.014Z,11.91
2018-04-30T23:40:00.785Z,11.90
2018-04-30T23:42:31.580Z,11.91
2018-04-30T23:45:02.620Z,11.86
2018-04-30T23:47:33.455Z,11.82
2018-04-30T23:50:04.228Z,11.72
2018-04-30T23:52:35.047Z,11.68
2018-04-30T23:55:05.891Z,11.72
2018-04-30T23:57:36.742Z,11.66
